Alda, Nebraska
Current Conditions -  °F | °C
As of 5:08 PM on Wednesday 17 Dec 2014 (Local Time) from KGRI Reporting Station
Overcast Overcast  
Wind Chill: 17°   Ceiling: 6500
Heat Index: 25°   Visibility: 10mi
Dew Point: 20°   Wind: 7mph
Humidity: 81%   Direction: 90°E
Pressure: 30.19"   Gusts: NA
Location:  40.87°N, 98.47°W
Report Text: KGRI 172308Z 09006KT 10SM SCT013 OVC065 M04/M07 A3019 RMK AO2 T10391067
Loading
Personal Weather Stations






























Interactive Weather Map New forecast layout! Learn more

10-Day Weather Forecast

Advertisements
Track Severe Weather on mobile